createdAt,value
2023-05-22T00:01:05.208Z,63.92
2023-05-22T00:02:10.064Z,63.97
2023-05-22T00:03:11.705Z,64.18
2023-05-22T00:04:13.436Z,64.25
2023-05-22T00:05:15.391Z,64.58
2023-05-22T00:06:22.396Z,64.54
2023-05-22T00:07:24.318Z,64.99
2023-05-22T00:08:29.945Z,64.58
2023-05-22T00:09:31.555Z,64.54
2023-05-22T00:10:33.047Z,64.98
2023-05-22T00:11:37.571Z,64.82
2023-05-22T00:12:39.292Z,64.85
2023-05-22T00:13:44.136Z,64.58
2023-05-22T00:14:47.681Z,64.65
2023-05-22T00:15:49.300Z,64.51
2023-05-22T00:16:53.473Z,64.54
2023-05-22T00:17:55.236Z,63.84
2023-05-22T00:18:57.694Z,64.63
2023-05-22T00:20:08.221Z,64.26
2023-05-22T00:21:10.429Z,64.94
2023-05-22T00:22:12.228Z,64.87
2023-05-22T00:23:15.746Z,64.72
2023-05-22T00:24:17.513Z,64.72
2023-05-22T00:25:21.441Z,64.36
2023-05-22T00:26:24.096Z,63.80
2023-05-22T00:27:26.801Z,64.59
2023-05-22T00:28:29.193Z,63.90
2023-05-22T00:29:33.844Z,64.11
2023-05-22T00:30:37.153Z,64.59
2023-05-22T00:31:38.786Z,64.21
2023-05-22T00:32:40.385Z,64.25
2023-05-22T00:33:43.479Z,63.78
2023-05-22T00:34:47.995Z,63.99
2023-05-22T00:35:49.639Z,64.21
2023-05-22T00:36:51.247Z,64.44
2023-05-22T00:37:52.883Z,64.13
2023-05-22T00:38:54.439Z,63.18
2023-05-22T00:39:56.047Z,63.66
2023-05-22T00:40:57.820Z,63.92
2023-05-22T00:42:08.913Z,64.34
2023-05-22T00:43:10.909Z,64.03
2023-05-22T00:44:15.695Z,63.95
2023-05-22T00:45:17.338Z,63.57
2023-05-22T00:46:23.013Z,63.64
2023-05-22T00:47:27.729Z,63.50
2023-05-22T00:48:29.298Z,62.56
2023-05-22T00:49:30.914Z,63.60
2023-05-22T00:50:39.137Z,63.15
2023-05-22T00:51:40.929Z,63.91
2023-05-22T00:52:53.031Z,63.83
2023-05-22T00:53:54.700Z,63.56
2023-05-22T00:54:56.399Z,63.66
2023-05-22T00:55:59.181Z,64.32
2023-05-22T00:57:04.382Z,64.10
2023-05-22T00:58:07.821Z,63.77
2023-05-22T00:59:11.466Z,63.33
2023-05-22T01:00:17.166Z,63.36
2023-05-22T01:01:18.993Z,62.93
2023-05-22T01:02:22.925Z,63.28
2023-05-22T01:03:27.407Z,63.39
2023-05-22T01:04:32.680Z,63.61
2023-05-22T01:05:37.859Z,63.51
2023-05-22T01:06:41.365Z,63.55
2023-05-22T01:07:43.016Z,63.27
2023-05-22T01:08:44.755Z,63.45
2023-05-22T01:09:46.656Z,63.72
2023-05-22T01:10:56.975Z,63.63
2023-05-22T01:12:26.755Z,63.07
2023-05-22T01:13:49.851Z,63.17
2023-05-22T01:15:24.017Z,63.48
2023-05-22T01:16:48.459Z,63.83
2023-05-22T01:18:12.509Z,64.40
2023-05-22T01:19:54.270Z,65.20
2023-05-22T01:21:39.353Z,65.44
2023-05-22T01:23:02.797Z,65.98
2023-05-22T01:24:22.112Z,66.06
2023-05-22T01:26:17.483Z,66.92
2023-05-22T01:27:37.358Z,67.42
2023-05-22T01:28:58.195Z,67.74
2023-05-22T01:30:14.720Z,67.48
2023-05-22T01:31:21.091Z,67.44
2023-05-22T01:32:26.604Z,67.36
2023-05-22T01:33:36.032Z,67.36
2023-05-22T01:34:45.068Z,67.25
2023-05-22T01:35:48.109Z,67.81
2023-05-22T01:36:53.295Z,67.68
2023-05-22T01:37:56.088Z,67.68
2023-05-22T01:39:03.720Z,67.60
2023-05-22T01:40:07.666Z,67.48
2023-05-22T01:41:09.429Z,67.13
2023-05-22T01:42:11.015Z,66.88
2023-05-22T01:43:14.784Z,66.55
2023-05-22T01:44:18.606Z,66.47
2023-05-22T01:45:21.232Z,66.26
2023-05-22T01:46:27.130Z,65.68
2023-05-22T01:47:28.909Z,65.54
2023-05-22T01:48:30.550Z,65.69
2023-05-22T01:49:34.850Z,65.50
2023-05-22T01:50:37.867Z,65.78
2023-05-22T01:51:42.505Z,65.59
2023-05-22T01:52:59.769Z,65.05
2023-05-22T01:54:11.655Z,64.76
2023-05-22T01:55:20.362Z,64.46
2023-05-22T01:56:34.771Z,65.49
2023-05-22T01:58:02.981Z,65.86
2023-05-22T01:59:31.000Z,65.41
2023-05-22T02:00:33.579Z,65.28
2023-05-22T02:01:37.896Z,65.97
2023-05-22T02:02:43.770Z,65.86
2023-05-22T02:03:47.763Z,65.86
2023-05-22T02:04:55.768Z,65.99
2023-05-22T02:06:01.796Z,66.58
2023-05-22T02:07:04.049Z,66.51
2023-05-22T02:08:09.010Z,66.03
2023-05-22T02:09:11.433Z,66.43
2023-05-22T02:10:14.281Z,66.02
2023-05-22T02:11:16.693Z,66.32
2023-05-22T02:12:19.259Z,66.00
2023-05-22T02:13:21.689Z,65.80
2023-05-22T02:14:23.851Z,66.28
2023-05-22T02:15:25.421Z,66.62
2023-05-22T02:16:28.859Z,66.44
2023-05-22T02:17:30.459Z,66.38
2023-05-22T02:18:32.162Z,66.45
2023-05-22T02:19:36.017Z,66.58
2023-05-22T02:20:37.881Z,66.09
2023-05-22T02:21:39.632Z,65.82
2023-05-22T02:22:43.753Z,65.90
2023-05-22T02:23:45.307Z,66.62
2023-05-22T02:24:48.523Z,67.11
2023-05-22T02:25:50.187Z,67.23
2023-05-22T02:26:51.811Z,67.13
2023-05-22T02:27:53.312Z,67.61
2023-05-22T02:28:55.069Z,67.42
2023-05-22T02:29:56.540Z,67.45
2023-05-22T02:30:58.062Z,66.91
2023-05-22T02:31:59.566Z,67.54
2023-05-22T02:33:05.794Z,67.18
2023-05-22T02:34:07.352Z,66.93
2023-05-22T02:35:09.858Z,66.59
2023-05-22T02:36:15.343Z,67.44
2023-05-22T02:37:16.952Z,67.84
2023-05-22T02:38:18.641Z,68.23
2023-05-22T02:39:20.125Z,67.61
2023-05-22T02:40:21.637Z,68.35
2023-05-22T02:41:23.216Z,68.52
2023-05-22T02:42:24.837Z,68.50
2023-05-22T02:43:26.385Z,67.94
2023-05-22T02:44:28.040Z,68.63
2023-05-22T02:45:29.778Z,69.05
2023-05-22T02:46:31.280Z,69.23
2023-05-22T02:47:32.851Z,68.92
2023-05-22T02:48:34.356Z,69.34
2023-05-22T02:49:35.897Z,68.27
2023-05-22T02:50:37.604Z,68.22
2023-05-22T02:51:39.380Z,68.53
2023-05-22T02:52:40.861Z,68.18
2023-05-22T02:53:42.376Z,68.15
2023-05-22T02:54:44.387Z,68.38
2023-05-22T02:55:46.110Z,68.35
2023-05-22T02:56:47.697Z,68.61
2023-05-22T02:57:49.218Z,68.65
2023-05-22T02:58:50.802Z,68.47
2023-05-22T02:59:52.703Z,68.51
2023-05-22T03:00:54.449Z,68.79
2023-05-22T03:01:55.998Z,68.94
2023-05-22T03:02:57.600Z,68.93
2023-05-22T03:03:59.180Z,69.25
2023-05-22T03:05:00.756Z,69.31
2023-05-22T03:06:04.298Z,68.85
2023-05-22T03:07:07.228Z,69.63
2023-05-22T03:08:08.938Z,69.67
2023-05-22T03:09:10.546Z,69.56
2023-05-22T03:10:12.037Z,69.31
2023-05-22T03:11:13.527Z,69.17
2023-05-22T03:12:15.016Z,69.74
2023-05-22T03:13:16.973Z,69.43
2023-05-22T03:14:18.448Z,69.87
2023-05-22T03:15:20.456Z,69.56
2023-05-22T03:16:22.097Z,69.40
2023-05-22T03:17:23.648Z,69.28
2023-05-22T03:18:27.466Z,69.31
2023-05-22T03:19:29.576Z,69.58
2023-05-22T03:20:31.386Z,69.27
2023-05-22T03:21:32.868Z,69.61
2023-05-22T03:22:34.684Z,69.76
2023-05-22T03:23:36.192Z,69.37
2023-05-22T03:24:37.665Z,69.04
2023-05-22T03:25:39.502Z,69.09
2023-05-22T03:26:41.886Z,68.62
2023-05-22T03:27:44.528Z,68.37
2023-05-22T03:28:46.063Z,68.66
2023-05-22T03:29:47.607Z,68.44
2023-05-22T03:30:49.185Z,67.93
2023-05-22T03:31:50.786Z,67.90
2023-05-22T03:32:53.251Z,67.04
2023-05-22T03:33:54.991Z,66.75
2023-05-22T03:34:56.482Z,66.31
2023-05-22T03:35:59.823Z,66.79
2023-05-22T03:37:01.363Z,66.61
2023-05-22T03:38:05.228Z,66.51
2023-05-22T03:39:06.903Z,66.73
2023-05-22T03:40:08.858Z,67.11
2023-05-22T03:41:10.356Z,67.84
2023-05-22T03:42:13.797Z,67.66
2023-05-22T03:43:15.448Z,67.77
2023-05-22T03:44:16.976Z,67.30
2023-05-22T03:45:18.536Z,67.60
2023-05-22T03:46:20.299Z,67.29
2023-05-22T03:47:21.954Z,67.40
2023-05-22T03:48:23.477Z,68.08
2023-05-22T03:49:24.974Z,68.32
2023-05-22T03:50:26.462Z,68.53
2023-05-22T03:51:27.979Z,69.23
2023-05-22T03:52:29.473Z,69.71
2023-05-22T03:53:30.952Z,69.89
2023-05-22T03:54:32.554Z,69.80
2023-05-22T03:55:34.559Z,70.18
2023-05-22T03:56:36.362Z,70.13
2023-05-22T03:57:37.932Z,70.39
2023-05-22T03:58:39.479Z,70.31
2023-05-22T03:59:41.010Z,70.20
2023-05-22T04:00:42.614Z,70.13
2023-05-22T04:01:46.550Z,69.81
2023-05-22T04:02:50.794Z,69.79
2023-05-22T04:03:55.025Z,69.23
2023-05-22T04:04:56.565Z,69.70
2023-05-22T04:05:58.644Z,69.74
2023-05-22T04:07:00.155Z,69.13
2023-05-22T04:08:01.676Z,69.72
2023-05-22T04:09:03.267Z,70.15
2023-05-22T04:10:05.341Z,70.42
2023-05-22T04:11:06.872Z,70.61
2023-05-22T04:12:09.007Z,70.96
2023-05-22T04:13:10.726Z,70.84
2023-05-22T04:14:12.811Z,70.90
2023-05-22T04:15:14.314Z,70.67
2023-05-22T04:16:17.483Z,70.40
2023-05-22T04:17:19.506Z,70.45
2023-05-22T04:18:21.097Z,70.45
2023-05-22T04:19:22.784Z,70.14
2023-05-22T04:20:24.493Z,70.22
2023-05-22T04:21:26.473Z,70.57
2023-05-22T04:22:31.177Z,70.68
2023-05-22T04:23:32.832Z,70.25
2023-05-22T04:24:34.839Z,70.75
2023-05-22T04:25:36.658Z,71.00
2023-05-22T04:26:40.984Z,70.41
2023-05-22T04:27:44.045Z,70.76
2023-05-22T04:28:46.117Z,70.82
2023-05-22T04:29:48.207Z,70.11
2023-05-22T04:30:49.822Z,70.09
2023-05-22T04:31:54.486Z,70.89
2023-05-22T04:32:57.333Z,70.65
2023-05-22T04:34:00.462Z,70.70
2023-05-22T04:35:08.574Z,70.66
2023-05-22T04:36:12.386Z,70.61
2023-05-22T04:37:17.287Z,70.80
2023-05-22T04:38:20.991Z,71.10
2023-05-22T04:39:22.566Z,70.68
2023-05-22T04:40:24.066Z,70.44
2023-05-22T04:41:26.748Z,69.49
2023-05-22T04:42:28.692Z,69.15
2023-05-22T04:43:32.391Z,69.96
2023-05-22T04:44:34.490Z,69.77
2023-05-22T04:45:39.323Z,68.58
2023-05-22T04:46:42.432Z,69.18
2023-05-22T04:47:44.504Z,69.61
2023-05-22T04:48:47.223Z,69.98
2023-05-22T04:49:49.003Z,70.15
2023-05-22T04:50:50.630Z,69.89
2023-05-22T04:51:54.053Z,69.10
2023-05-22T04:52:55.752Z,69.57
2023-05-22T04:53:58.509Z,70.07
2023-05-22T04:55:01.137Z,69.85
2023-05-22T04:56:03.533Z,70.30
2023-05-22T04:57:05.369Z,70.11
2023-05-22T04:58:07.105Z,69.91
2023-05-22T04:59:09.488Z,70.19
2023-05-22T05:00:12.852Z,70.31
2023-05-22T05:01:14.472Z,70.34
2023-05-22T05:02:16.083Z,70.56
2023-05-22T05:03:17.710Z,70.44
2023-05-22T05:04:19.286Z,70.46
2023-05-22T05:05:21.104Z,70.23
2023-05-22T05:06:22.667Z,70.70
2023-05-22T05:07:25.240Z,70.67
2023-05-22T05:08:26.832Z,70.40
2023-05-22T05:09:28.313Z,70.02
2023-05-22T05:10:29.892Z,69.57
2023-05-22T05:11:31.421Z,69.30
2023-05-22T05:12:32.945Z,69.71
2023-05-22T05:13:34.449Z,70.09
2023-05-22T05:14:35.902Z,69.83
2023-05-22T05:15:37.404Z,70.77
2023-05-22T05:16:38.944Z,70.50
2023-05-22T05:17:41.137Z,70.49
2023-05-22T05:18:42.675Z,71.70
2023-05-22T05:19:44.771Z,70.07
2023-05-22T05:20:46.523Z,70.26
2023-05-22T05:21:49.687Z,70.94
2023-05-22T05:22:51.459Z,70.07
2023-05-22T05:23:52.972Z,69.79
2023-05-22T05:24:54.486Z,68.98
2023-05-22T05:25:56.130Z,68.56
2023-05-22T05:26:57.644Z,68.84
2023-05-22T05:27:59.117Z,69.99
2023-05-22T05:29:04.606Z,70.23
2023-05-22T05:30:13.757Z,69.14
2023-05-22T05:31:15.550Z,69.48
2023-05-22T05:32:17.836Z,67.66
2023-05-22T05:33:19.904Z,68.36
2023-05-22T05:34:21.412Z,69.45
2023-05-22T05:35:22.861Z,69.19
2023-05-22T05:36:25.207Z,68.35
2023-05-22T05:37:27.098Z,66.84
2023-05-22T05:38:28.582Z,67.15
2023-05-22T05:39:30.051Z,67.00
2023-05-22T05:40:31.517Z,68.82
2023-05-22T05:41:32.989Z,72.07
2023-05-22T05:42:34.448Z,69.28
2023-05-22T05:43:35.907Z,68.86
2023-05-22T05:44:37.656Z,69.46
2023-05-22T05:45:39.228Z,67.92
2023-05-22T05:46:40.778Z,69.74
2023-05-22T05:47:42.388Z,69.83
2023-05-22T05:48:44.040Z,67.99
2023-05-22T05:49:45.622Z,67.85
2023-05-22T05:50:47.121Z,69.30
2023-05-22T05:51:48.807Z,67.95
2023-05-22T05:52:50.541Z,66.89
2023-05-22T05:53:52.336Z,69.35
2023-05-22T05:54:53.948Z,69.50
2023-05-22T05:55:56.060Z,66.86
2023-05-22T05:56:57.529Z,67.65
2023-05-22T05:57:59.007Z,67.80
2023-05-22T05:59:00.469Z,67.97
2023-05-22T06:00:01.985Z,67.10
2023-05-22T06:01:04.265Z,66.14
2023-05-22T06:02:06.484Z,66.40
2023-05-22T06:03:08.150Z,64.56
2023-05-22T06:04:09.771Z,65.30
2023-05-22T06:05:11.638Z,66.00
2023-05-22T06:06:14.138Z,65.84
2023-05-22T06:07:16.381Z,66.71
2023-05-22T06:08:19.817Z,65.36
2023-05-22T06:09:21.467Z,65.44
2023-05-22T06:10:23.118Z,64.90
2023-05-22T06:11:24.671Z,64.80
2023-05-22T06:12:26.234Z,64.62
2023-05-22T06:13:27.742Z,63.60
2023-05-22T06:14:29.218Z,61.98
2023-05-22T06:15:31.802Z,61.19
2023-05-22T06:16:33.411Z,61.91
2023-05-22T06:17:37.195Z,62.09
2023-05-22T06:18:38.818Z,60.21
2023-05-22T06:19:41.039Z,59.50
2023-05-22T06:20:43.162Z,60.32
2023-05-22T06:21:44.665Z,60.44
2023-05-22T06:22:46.699Z,60.78
2023-05-22T06:23:49.830Z,61.21
2023-05-22T06:24:54.342Z,62.37
2023-05-22T06:25:55.956Z,63.19
2023-05-22T06:26:57.599Z,60.83
2023-05-22T06:27:59.055Z,60.57
2023-05-22T06:29:00.899Z,60.06
2023-05-22T06:30:04.606Z,58.79
2023-05-22T06:31:07.127Z,58.32
2023-05-22T06:32:08.897Z,57.96
2023-05-22T06:33:14.592Z,57.26
2023-05-22T06:34:16.275Z,56.33
2023-05-22T06:35:18.506Z,56.13
2023-05-22T06:36:20.128Z,56.55
2023-05-22T06:37:21.685Z,56.96
2023-05-22T06:38:23.157Z,56.53
2023-05-22T06:39:26.832Z,56.14
2023-05-22T06:40:28.488Z,55.97
2023-05-22T06:41:30.013Z,54.83
2023-05-22T06:42:32.859Z,55.20
2023-05-22T06:43:34.334Z,55.26
2023-05-22T06:44:38.461Z,55.20
2023-05-22T06:45:43.250Z,54.98
2023-05-22T06:46:45.636Z,53.92
2023-05-22T06:47:48.285Z,54.20
2023-05-22T06:48:50.081Z,54.34
2023-05-22T06:49:51.641Z,54.03
2023-05-22T06:51:13.225Z,53.44
2023-05-22T06:52:54.458Z,53.89
2023-05-22T06:54:06.143Z,54.11
2023-05-22T06:55:08.127Z,53.96
2023-05-22T06:56:09.970Z,53.08
2023-05-22T06:59:06.408Z,51.40
2023-05-22T07:04:33.630Z,52.97
2023-05-22T07:11:10.453Z,42.88
2023-05-22T07:12:39.255Z,39.66
2023-05-22T07:14:00.301Z,38.67
2023-05-22T07:15:07.380Z,36.76
2023-05-22T07:16:26.821Z,35.46
2023-05-22T07:17:31.913Z,34.74
2023-05-22T07:18:33.998Z,34.84
2023-05-22T07:19:36.058Z,33.26
2023-05-22T07:20:37.966Z,33.26
2023-05-22T07:21:40.016Z,32.73
2023-05-22T07:22:41.566Z,32.33
2023-05-22T07:23:43.150Z,31.56
2023-05-22T07:24:44.805Z,30.87
2023-05-22T07:25:47.511Z,30.58
2023-05-22T07:26:49.521Z,30.91
2023-05-22T07:27:51.285Z,30.24
2023-05-22T07:28:52.783Z,29.28
2023-05-22T07:29:54.582Z,28.82
2023-05-22T07:30:56.491Z,28.42
2023-05-22T07:31:58.392Z,28.60
2023-05-22T07:32:59.963Z,28.59
2023-05-22T07:34:01.595Z,28.11
2023-05-22T07:35:03.334Z,26.44
2023-05-22T07:36:05.655Z,26.42
2023-05-22T07:37:12.642Z,25.43
2023-05-22T07:38:14.508Z,24.28
2023-05-22T07:39:16.226Z,23.25
2023-05-22T07:40:18.233Z,24.15
2023-05-22T07:41:19.823Z,23.86
2023-05-22T07:42:23.992Z,23.17
2023-05-22T07:43:25.667Z,23.90
2023-05-22T07:44:27.191Z,24.14
2023-05-22T07:45:28.929Z,23.64
2023-05-22T07:46:30.587Z,23.00
2023-05-22T07:47:32.181Z,22.43
2023-05-22T07:48:33.855Z,23.43
2023-05-22T07:49:35.677Z,24.23
2023-05-22T07:50:37.756Z,24.46
2023-05-22T07:51:41.132Z,24.55
2023-05-22T07:52:42.691Z,24.95
2023-05-22T07:53:44.568Z,25.32
2023-05-22T07:54:46.445Z,25.63
2023-05-22T07:55:48.207Z,26.97
2023-05-22T07:56:50.088Z,27.78
2023-05-22T07:57:52.850Z,30.07
2023-05-22T07:58:54.347Z,31.34
2023-05-22T07:59:56.940Z,30.33
2023-05-22T08:00:58.564Z,30.21
2023-05-22T08:02:00.154Z,30.40
2023-05-22T08:03:02.109Z,30.68
2023-05-22T08:04:06.965Z,30.79
2023-05-22T08:05:09.929Z,30.83
2023-05-22T08:06:12.941Z,28.88
2023-05-22T08:07:14.556Z,27.90
2023-05-22T08:08:16.110Z,27.44
2023-05-22T08:09:17.678Z,27.02
2023-05-22T08:10:37.208Z,27.14
2023-05-22T08:11:48.753Z,24.77
2023-05-22T08:12:50.694Z,25.15
2023-05-22T08:13:52.360Z,25.74
2023-05-22T08:14:54.374Z,25.33
2023-05-22T08:16:00.433Z,25.78
2023-05-22T08:17:02.666Z,24.23
2023-05-22T08:18:12.648Z,24.31
2023-05-22T08:19:14.667Z,24.38
2023-05-22T08:20:16.691Z,24.38
2023-05-22T08:21:18.768Z,25.19
2023-05-22T08:22:20.662Z,25.42
2023-05-22T08:23:22.263Z,26.41
2023-05-22T08:24:28.908Z,24.83
2023-05-22T08:25:30.500Z,25.34
2023-05-22T08:26:33.875Z,24.62
2023-05-22T08:27:35.778Z,23.98
2023-05-22T08:28:42.102Z,23.80
2023-05-22T08:29:43.623Z,23.53
2023-05-22T08:30:45.186Z,22.93
2023-05-22T08:31:46.902Z,23.63
2023-05-22T08:32:48.525Z,23.90
2023-05-22T08:33:50.147Z,23.72
2023-05-22T08:34:51.934Z,23.97
2023-05-22T08:35:53.564Z,26.34
2023-05-22T08:36:59.244Z,25.96
2023-05-22T08:38:00.772Z,26.61
2023-05-22T08:39:02.846Z,25.84
2023-05-22T08:40:05.561Z,26.64
2023-05-22T08:41:08.266Z,27.89
2023-05-22T08:42:09.946Z,27.09
2023-05-22T08:43:11.670Z,26.37
2023-05-22T08:44:14.157Z,27.77
2023-05-22T08:45:16.295Z,27.72
2023-05-22T08:46:20.116Z,27.79
2023-05-22T08:47:26.187Z,27.39
2023-05-22T08:48:32.098Z,28.17
2023-05-22T08:49:34.011Z,28.30
2023-05-22T08:50:41.720Z,28.90
2023-05-22T08:51:48.070Z,29.51
2023-05-22T08:52:57.332Z,31.99
2023-05-22T08:53:59.666Z,32.36
2023-05-22T08:55:05.462Z,31.79
2023-05-22T08:56:08.595Z,32.62
2023-05-22T08:57:10.851Z,33.79
2023-05-22T08:58:12.548Z,33.97
2023-05-22T08:59:14.089Z,33.67
2023-05-22T09:00:16.996Z,35.23
2023-05-22T09:01:19.245Z,34.48
2023-05-22T09:02:21.718Z,35.50
2023-05-22T09:03:23.593Z,35.01
2023-05-22T09:04:25.705Z,37.00
2023-05-22T09:05:27.380Z,37.45
2023-05-22T09:06:32.139Z,36.56
2023-05-22T09:07:33.656Z,35.82
2023-05-22T09:08:35.592Z,35.99
2023-05-22T09:09:40.795Z,36.17
2023-05-22T09:10:42.325Z,36.64
2023-05-22T09:11:44.267Z,37.68
2023-05-22T09:13:04.210Z,38.05
2023-05-22T09:14:10.175Z,38.07
2023-05-22T09:15:12.256Z,38.20
2023-05-22T09:16:14.905Z,37.66
2023-05-22T09:17:17.105Z,38.93
2023-05-22T09:18:18.710Z,37.46
2023-05-22T09:19:20.596Z,38.93
2023-05-22T09:20:22.505Z,36.74
2023-05-22T09:21:30.238Z,37.20
2023-05-22T09:22:39.709Z,39.14
2023-05-22T09:23:42.067Z,40.63
2023-05-22T09:24:47.078Z,39.76
2023-05-22T09:25:49.087Z,37.62
2023-05-22T09:26:52.563Z,35.96
2023-05-22T09:27:54.225Z,37.84
2023-05-22T09:28:57.418Z,37.10
2023-05-22T09:29:58.998Z,37.37
2023-05-22T09:31:03.791Z,36.98
2023-05-22T09:32:13.713Z,34.35
2023-05-22T09:33:17.139Z,35.85
2023-05-22T09:34:19.127Z,36.45
2023-05-22T09:35:20.998Z,36.99
2023-05-22T09:36:23.075Z,38.14
2023-05-22T09:37:28.555Z,37.61
2023-05-22T09:38:30.762Z,38.79
2023-05-22T09:39:40.424Z,37.21
2023-05-22T09:40:42.324Z,36.52
2023-05-22T09:41:44.427Z,36.86
2023-05-22T09:42:46.033Z,36.85
2023-05-22T09:43:51.460Z,37.08
2023-05-22T09:44:53.071Z,35.58
2023-05-22T09:46:01.016Z,36.38
2023-05-22T09:47:03.478Z,33.87
2023-05-22T09:48:09.432Z,32.48
2023-05-22T09:49:14.146Z,32.30
2023-05-22T09:50:18.549Z,30.81
2023-05-22T09:51:26.689Z,31.57
2023-05-22T09:52:29.042Z,29.74
2023-05-22T09:53:33.272Z,29.60
2023-05-22T09:54:35.534Z,28.88
2023-05-22T09:55:37.989Z,30.49
2023-05-22T09:56:40.915Z,28.48
2023-05-22T09:57:44.594Z,28.66
2023-05-22T09:58:48.166Z,28.62
2023-05-22T09:59:54.977Z,30.04
2023-05-22T10:00:57.640Z,29.18
2023-05-22T10:02:02.000Z,30.81
2023-05-22T10:03:09.601Z,29.25
2023-05-22T10:04:16.057Z,29.46
2023-05-22T10:05:22.066Z,28.06
2023-05-22T10:06:25.359Z,27.55
2023-05-22T10:07:46.627Z,28.87
2023-05-22T10:08:53.277Z,28.93
2023-05-22T10:10:04.584Z,29.86
2023-05-22T10:11:06.514Z,30.03
2023-05-22T10:12:10.413Z,30.86
2023-05-22T10:13:12.349Z,31.62
2023-05-22T10:14:15.234Z,31.49
2023-05-22T10:15:18.843Z,29.52
2023-05-22T10:16:22.154Z,29.63
2023-05-22T10:17:24.890Z,30.37
2023-05-22T10:18:27.193Z,29.61
2023-05-22T10:19:31.286Z,28.76
2023-05-22T10:20:33.155Z,28.50
2023-05-22T10:21:36.836Z,29.55
2023-05-22T10:22:39.020Z,27.78
2023-05-22T10:23:41.637Z,27.20
2023-05-22T10:24:43.679Z,28.80
2023-05-22T10:25:45.933Z,28.02
2023-05-22T10:26:47.739Z,25.71
2023-05-22T10:27:52.761Z,28.62
2023-05-22T10:29:07.397Z,29.24
2023-05-22T10:30:11.634Z,27.67
2023-05-22T10:31:32.679Z,26.60
2023-05-22T10:32:42.911Z,27.23
2023-05-22T10:33:50.405Z,27.93
2023-05-22T10:35:01.978Z,26.28
2023-05-22T10:36:28.534Z,29.11
2023-05-22T10:37:44.639Z,25.73
2023-05-22T10:39:17.266Z,25.28
2023-05-22T10:40:30.407Z,25.46
2023-05-22T10:41:32.219Z,24.85
2023-05-22T10:42:34.262Z,24.06
2023-05-22T10:43:42.858Z,23.56
2023-05-22T10:44:44.537Z,23.03
2023-05-22T10:45:46.954Z,22.36
2023-05-22T10:46:50.848Z,21.24
2023-05-22T10:48:06.368Z,22.27
2023-05-22T10:49:09.249Z,22.37
2023-05-22T10:50:12.154Z,23.16
2023-05-22T10:51:16.179Z,23.19
2023-05-22T10:52:21.951Z,23.16
2023-05-22T10:53:32.391Z,24.16
2023-05-22T10:54:45.653Z,22.60
2023-05-22T10:55:58.378Z,23.30
2023-05-22T10:57:10.165Z,22.81
2023-05-22T10:58:16.637Z,23.68
2023-05-22T10:59:18.299Z,23.28
2023-05-22T11:00:24.200Z,23.73
2023-05-22T11:01:26.720Z,24.61
2023-05-22T11:02:29.966Z,25.18
2023-05-22T11:04:00.889Z,25.74
2023-05-22T11:05:25.863Z,25.10
2023-05-22T11:06:35.260Z,26.15
2023-05-22T11:07:42.796Z,24.84
2023-05-22T11:08:47.036Z,24.97
2023-05-22T11:09:48.797Z,25.96
2023-05-22T11:10:55.860Z,24.90
2023-05-22T11:12:24.651Z,24.56
2023-05-22T11:13:29.042Z,24.94
2023-05-22T11:14:31.794Z,24.63
2023-05-22T11:15:33.443Z,25.19
2023-05-22T11:16:37.455Z,25.16
2023-05-22T11:17:45.229Z,25.26
2023-05-22T11:18:47.386Z,25.64
2023-05-22T11:20:24.879Z,25.69
2023-05-22T11:21:29.491Z,25.15
2023-05-22T11:22:31.810Z,24.35
2023-05-22T11:23:34.634Z,24.80
2023-05-22T11:24:37.941Z,25.11
2023-05-22T11:25:41.460Z,23.56
2023-05-22T11:26:43.217Z,23.73
2023-05-22T11:27:45.460Z,24.56
2023-05-22T11:28:50.509Z,24.22
2023-05-22T11:29:52.748Z,24.89
2023-05-22T11:30:54.445Z,24.92
2023-05-22T11:31:57.915Z,26.03
2023-05-22T11:33:00.598Z,24.63
2023-05-22T11:34:02.396Z,23.93
2023-05-22T11:35:05.477Z,23.31
2023-05-22T11:36:09.009Z,24.05
2023-05-22T11:37:10.903Z,22.66
2023-05-22T11:38:12.634Z,21.47
2023-05-22T11:39:17.263Z,20.81
2023-05-22T11:40:21.272Z,19.88
2023-05-22T11:41:22.817Z,19.83
2023-05-22T11:42:25.106Z,19.03
2023-05-22T11:43:31.526Z,18.66
2023-05-22T11:44:33.085Z,19.53
2023-05-22T11:45:38.224Z,18.80
2023-05-22T11:46:40.375Z,19.23
2023-05-22T11:47:42.738Z,18.99
2023-05-22T11:48:44.545Z,18.88
2023-05-22T11:49:46.346Z,19.12
2023-05-22T11:50:48.598Z,17.97
2023-05-22T11:51:51.931Z,17.72
2023-05-22T11:52:54.114Z,18.25
2023-05-22T11:53:57.374Z,19.21
2023-05-22T11:54:59.471Z,18.17
2023-05-22T11:56:05.631Z,17.46
2023-05-22T11:57:09.271Z,17.96
2023-05-22T11:58:10.839Z,18.06
2023-05-22T11:59:12.451Z,17.89
2023-05-22T12:00:14.737Z,18.06
2023-05-22T12:01:16.492Z,17.90
2023-05-22T12:02:19.310Z,17.74
2023-05-22T12:03:20.939Z,17.44
2023-05-22T12:04:23.424Z,17.45
2023-05-22T12:05:25.122Z,17.14
2023-05-22T12:06:26.836Z,17.52
2023-05-22T12:07:28.753Z,18.03
2023-05-22T12:08:30.732Z,18.16
2023-05-22T12:09:32.343Z,18.16
2023-05-22T12:10:33.864Z,17.26
2023-05-22T12:11:36.493Z,17.44
2023-05-22T12:12:38.357Z,17.71
2023-05-22T12:13:40.024Z,18.46
2023-05-22T12:14:44.837Z,18.22
2023-05-22T12:15:46.477Z,18.43
2023-05-22T12:16:52.359Z,18.71
2023-05-22T12:17:57.266Z,19.21
2023-05-22T12:18:59.021Z,20.27
2023-05-22T12:20:00.633Z,19.81
2023-05-22T12:21:02.169Z,20.06
2023-05-22T12:22:04.932Z,20.28
2023-05-22T12:23:11.781Z,18.31
2023-05-22T12:24:13.416Z,18.35
2023-05-22T12:25:18.236Z,18.38
2023-05-22T12:26:20.487Z,18.74
2023-05-22T12:27:22.005Z,18.58
2023-05-22T12:28:23.962Z,19.04
2023-05-22T12:29:25.780Z,20.24
2023-05-22T12:30:27.825Z,20.28
2023-05-22T12:31:35.941Z,20.77
2023-05-22T12:32:39.573Z,20.18
2023-05-22T12:33:41.130Z,20.06
2023-05-22T12:34:47.214Z,20.36
2023-05-22T12:35:52.311Z,20.64
2023-05-22T12:36:53.901Z,20.48
2023-05-22T12:37:55.551Z,20.43
2023-05-22T12:38:58.054Z,20.60
2023-05-22T12:40:01.618Z,20.80
2023-05-22T12:41:03.156Z,20.95
2023-05-22T12:42:04.895Z,21.47
2023-05-22T12:43:06.513Z,21.13
2023-05-22T12:44:08.570Z,22.00
2023-05-22T12:45:11.682Z,22.06
2023-05-22T12:46:13.647Z,22.37
2023-05-22T12:47:15.222Z,21.73
2023-05-22T12:48:17.194Z,21.48
2023-05-22T12:49:18.866Z,21.68
2023-05-22T12:50:20.519Z,21.62
2023-05-22T12:51:22.165Z,23.12
2023-05-22T12:52:23.746Z,22.37
2023-05-22T12:53:25.810Z,22.46
2023-05-22T12:54:27.390Z,23.83
2023-05-22T12:55:29.183Z,22.80
2023-05-22T12:56:31.956Z,23.75
2023-05-22T12:57:33.476Z,23.92
2023-05-22T12:58:35.031Z,24.19
2023-05-22T12:59:37.957Z,25.84
2023-05-22T13:00:39.713Z,25.32
2023-05-22T13:01:41.494Z,25.12
2023-05-22T13:02:43.126Z,25.32
2023-05-22T13:03:46.607Z,25.43
2023-05-22T13:04:48.180Z,26.52
2023-05-22T13:05:50.187Z,26.58
2023-05-22T13:06:51.664Z,26.64
2023-05-22T13:07:53.228Z,26.14
2023-05-22T13:08:54.777Z,26.80
2023-05-22T13:09:57.388Z,26.56
2023-05-22T13:10:59.443Z,28.08
2023-05-22T13:12:01.155Z,26.41
2023-05-22T13:13:02.811Z,26.21
2023-05-22T13:14:04.395Z,27.59
2023-05-22T13:15:07.149Z,26.91
2023-05-22T13:16:09.066Z,25.52
2023-05-22T13:17:11.751Z,25.32
2023-05-22T13:18:13.845Z,25.25
2023-05-22T13:19:16.113Z,25.38
2023-05-22T13:20:17.733Z,25.30
2023-05-22T13:21:21.404Z,24.63
2023-05-22T13:22:23.785Z,24.79
2023-05-22T13:23:25.576Z,24.95
2023-05-22T13:24:27.084Z,24.31
2023-05-22T13:25:28.628Z,24.31
2023-05-22T13:26:32.014Z,25.05
2023-05-22T13:27:34.112Z,24.35
2023-05-22T13:28:35.706Z,24.10
2023-05-22T13:29:37.276Z,23.43
2023-05-22T13:30:39.183Z,23.63
2023-05-22T13:31:41.462Z,23.33
2023-05-22T13:32:43.036Z,23.39
2023-05-22T13:33:44.688Z,23.20
2023-05-22T13:34:46.294Z,23.79
2023-05-22T13:35:49.032Z,24.11
2023-05-22T13:36:50.699Z,23.27
2023-05-22T13:37:52.385Z,23.41
2023-05-22T13:38:53.962Z,23.47
2023-05-22T13:39:55.467Z,24.54
2023-05-22T13:40:57.505Z,24.24
2023-05-22T13:41:59.421Z,22.98
2023-05-22T13:43:01.214Z,24.31
2023-05-22T13:44:02.737Z,24.65
2023-05-22T13:45:05.080Z,23.41
2023-05-22T13:46:07.066Z,22.27
2023-05-22T13:47:08.770Z,23.01
2023-05-22T13:48:14.516Z,22.14
2023-05-22T13:49:18.878Z,22.34
2023-05-22T13:50:30.114Z,21.60
2023-05-22T13:51:31.791Z,22.54
2023-05-22T13:52:33.333Z,23.45
2023-05-22T13:53:35.401Z,22.90
2023-05-22T13:54:37.092Z,22.79
2023-05-22T13:55:39.015Z,23.33